Time;durP1;ratioP1;P1;durP2;ratioP2;P2;SDS_P1;SDS_P2;PMS_P1;PMS_P2;Temp;Humidity;BMP_temperature;BMP_pressure;BME280_temperature;BME280_humidity;BME280_pressure;Samples;Min_cycle;Max_cycle;Signal;HPM_P1;HPM_P2
2022/09/01 00:00:27;;;;;;;1999.90;999.90;;;15.80;99.90;;;;;;5092564;28;20059;-60
2022/09/01 00:02:55;;;;;;;1999.90;999.90;;;15.70;99.90;;;;;;5092216;28;20371;-60
2022/09/01 00:05:21;;;;;;;1999.90;999.90;;;15.70;99.90;;;;;;5092805;28;20093;-60
2022/09/01 00:07:48;;;;;;;1999.90;999.90;;;15.70;99.90;;;;;;5092067;28;20040;-60
2022/09/01 00:10:15;;;;;;;1999.90;999.90;;;15.60;99.90;;;;;;5091962;28;20419;-60
2022/09/01 00:12:42;;;;;;;1999.90;999.90;;;15.60;99.90;;;;;;5092473;28;20101;-60
2022/09/01 00:15:09;;;;;;;1999.90;999.90;;;15.60;99.90;;;;;;5067061;28;20045;-60
2022/09/01 00:17:35;;;;;;;1999.90;999.90;;;15.50;99.90;;;;;;5051882;28;20095;-60
2022/09/01 00:20:02;;;;;;;1999.90;999.90;;;15.50;99.90;;;;;;5052572;28;20080;-60
2022/09/01 00:22:28;;;;;;;1999.90;999.90;;;15.50;99.90;;;;;;5034043;28;20056;-60
2022/09/01 00:24:55;;;;;;;1999.90;999.90;;;15.50;99.90;;;;;;5045076;28;20120;-60
2022/09/01 00:27:21;;;;;;;1999.90;999.90;;;15.50;99.90;;;;;;5072440;28;20048;-60
2022/09/01 00:29:47;;;;;;;1999.90;999.90;;;15.50;99.90;;;;;;5072083;28;20045;-61
2022/09/01 00:32:13;;;;;;;1999.90;999.90;;;15.50;99.90;;;;;;5053328;28;20490;-60
2022/09/01 00:34:39;;;;;;;1999.90;999.90;;;15.50;99.90;;;;;;5034518;28;20503;-60
2022/09/01 00:37:05;;;;;;;1999.90;999.90;;;15.40;99.90;;;;;;5034065;28;20049;-60
2022/09/01 00:39:31;;;;;;;1999.90;999.90;;;15.50;99.90;;;;;;5051709;28;20052;-60
2022/09/01 00:41:58;;;;;;;1999.90;999.90;;;15.40;99.90;;;;;;5027628;28;20041;-60
2022/09/01 00:44:26;;;;;;;1999.90;999.90;;;15.40;99.90;;;;;;5046808;28;20056;-60
2022/09/01 00:46:54;;;;;;;1999.90;999.90;;;15.40;99.90;;;;;;5038757;28;20049;-60
2022/09/01 00:49:29;;;;;;;1999.90;999.90;;;15.40;99.90;;;;;;5052129;28;20052;-60
2022/09/01 00:52:00;;;;;;;1999.90;999.90;;;15.40;99.90;;;;;;5051008;28;20052;-60
2022/09/01 00:54:32;;;;;;;1999.90;999.90;;;15.40;99.90;;;;;;5051968;28;20037;-60
2022/09/01 00:57:00;;;;;;;1999.90;999.90;;;15.40;99.90;;;;;;5051712;28;20060;-60
2022/09/01 00:59:26;;;;;;;;;;;15.40;99.90;;;;;;5035913;28;20040;-60
2022/09/01 01:01:52;;;;;;;;;;;15.40;99.90;;;;;;5054676;28;19920;-60
2022/09/01 01:04:18;;;;;;;;;;;15.40;99.90;;;;;;5054763;28;19923;-60
2022/09/01 01:06:48;;;;;;;;;;;15.40;99.90;;;;;;5056907;28;19999;-60
2022/09/01 01:09:15;;;;;;;;;;;15.40;99.90;;;;;;5042676;28;19921;-60
2022/09/01 01:11:43;;;;;;;;;;;15.50;99.90;;;;;;5056080;28;19975;-60
2022/09/01 01:14:11;;;;;;;;;;;15.50;99.90;;;;;;5054445;28;19921;-60
2022/09/01 01:16:40;;;;;;;;;;;15.50;99.90;;;;;;5055650;28;19931;-60
2022/09/01 01:23:00;;;;;;;;;;;15.50;99.90;;;;;;5021351;28;19927;-61
2022/09/01 01:24:37;;;;;;;;;;;15.50;99.90;;;;;;5046105;28;19927;-61
2022/09/01 01:27:04;;;;;;;;;;;15.60;99.90;;;;;;5006808;28;19921;-60
2022/09/01 01:29:31;;;;;;;;;;;15.60;99.90;;;;;;5034194;28;19921;-60
2022/09/01 01:31:57;;;;;;;;;;;15.60;99.90;;;;;;5034436;28;20355;-61
2022/09/01 01:34:23;;;;;;;;;;;15.60;99.90;;;;;;5018190;28;19928;-60
2022/09/01 01:36:49;;;;;;;;;;;15.60;99.90;;;;;;5037489;28;20031;-59
2022/09/01 01:39:17;;;;;;;;;;;15.60;99.90;;;;;;5055668;28;19956;-60
2022/09/01 01:41:47;;;;;;;;;;;15.60;99.90;;;;;;5053608;28;19921;-61
2022/09/01 01:44:15;;;;;;;;;;;15.60;99.90;;;;;;5070058;28;19928;-60
2022/09/01 01:46:43;;;;;;;;;;;15.60;99.90;;;;;;5070854;28;20400;-60
2022/09/01 01:49:12;;;;;;;;;;;15.60;99.90;;;;;;5036859;28;19968;-60
2022/09/01 01:51:39;;;;;;;;;;;15.60;99.90;;;;;;5037166;28;19966;-60
2022/09/01 01:54:06;;;;;;;;;;;15.60;99.90;;;;;;5053393;28;19920;-60
2022/09/01 01:56:34;;;;;;;;;;;15.60;99.90;;;;;;5036468;28;20007;-60
2022/09/01 01:59:00;;;;;;;;;;;15.60;99.90;;;;;;5053392;28;19921;-60
2022/09/01 02:01:28;;;;;;;;;;;15.60;99.90;;;;;;5054687;28;19935;-62
2022/09/01 02:03:55;;;;;;;;;;;15.60;99.90;;;;;;5069807;28;19927;-61
2022/09/01 02:06:23;;;;;;;;;;;15.60;99.90;;;;;;5036740;28;19928;-61
2022/09/01 02:08:51;;;;;;;;;;;15.60;99.90;;;;;;5052627;28;20010;-61
2022/09/01 02:11:17;;;;;;;;;;;15.60;99.90;;;;;;5037932;28;19950;-61
2022/09/01 02:13:45;;;;;;;;;;;15.60;99.90;;;;;;5054564;28;20289;-61
2022/09/01 02:16:11;;;;;;;;;;;15.60;99.90;;;;;;5055185;28;20011;-61
2022/09/01 02:18:41;;;;;;;;;;;15.60;99.90;;;;;;5057364;28;19920;-61
2022/09/01 02:21:10;;;;;;;;;;;15.60;99.90;;;;;;5076675;28;19969;-61
2022/09/01 02:23:37;;;;;;;;;;;15.50;99.90;;;;;;5056056;28;20043;-61
2022/09/01 02:26:05;;;;;;;;;;;15.50;99.90;;;;;;5074295;28;20007;-60
2022/09/01 02:28:33;;;;;;;;;;;15.50;99.90;;;;;;5083619;28;19928;-60
2022/09/01 02:31:01;;;;;;;;;;;15.50;99.90;;;;;;5075729;28;19920;-60
2022/09/01 02:33:30;;;;;;;;;;;15.50;99.90;;;;;;5076638;28;19924;-60
2022/09/01 02:35:58;;;;;;;;;;;15.50;99.90;;;;;;5061467;28;19973;-60
2022/09/01 02:38:26;;;;;;;;;;;15.40;99.90;;;;;;5091555;28;19919;-60
2022/09/01 02:40:52;;;;;;;;;;;15.40;99.90;;;;;;5076555;28;19967;-60
2022/09/01 02:43:19;;;;;;;;;;;15.30;99.90;;;;;;5094365;28;19920;-60
2022/09/01 02:45:54;;;;;;;;;;;15.40;99.90;;;;;;5074880;28;19919;-60
2022/09/01 02:48:23;;;;;;;;;;;15.40;99.90;;;;;;5076345;28;19920;-60
2022/09/01 02:50:48;;;;;;;;;;;15.30;99.90;;;;;;5094278;28;19920;-60
2022/09/01 02:53:15;;;;;;;;;;;15.30;99.90;;;;;;5075259;28;19927;-60
2022/09/01 02:55:42;;;;;;;;;;;15.30;99.90;;;;;;5058922;28;19920;-60
2022/09/01 02:58:15;;;;;;;;;;;15.30;99.90;;;;;;5075153;28;19920;-60
2022/09/01 03:00:42;;;;;;;;;;;15.20;99.90;;;;;;5076271;28;19922;-60
2022/09/01 03:03:08;;;;;;;;;;;15.20;99.90;;;;;;5093547;28;19959;-60
2022/09/01 03:05:34;;;;;;;;;;;15.10;99.90;;;;;;5067020;28;19923;-60
2022/09/01 03:08:02;;;;;;;;;;;15.10;99.90;;;;;;5075896;28;19926;-60
2022/09/01 03:10:31;;;;;;;;;;;15.10;99.90;;;;;;5076076;28;19924;-60
2022/09/01 03:12:59;;;;;;;;;;;15.10;99.90;;;;;;5051808;28;19928;-60
2022/09/01 03:15:26;;;;;;;;;;;15.10;99.90;;;;;;5054338;28;19975;-60
2022/09/01 03:17:52;;;;;;;;;;;15.10;99.90;;;;;;5043344;28;19976;-60
2022/09/01 03:20:18;;;;;;;;;;;15.10;99.90;;;;;;5082418;28;19921;-60
2022/09/01 03:22:46;;;;;;;;;;;15.10;99.90;;;;;;5066664;28;20271;-60
2022/09/01 03:25:12;;;;;;;;;;;15.10;99.90;;;;;;5039341;28;19925;-60
2022/09/01 03:27:38;;;;;;;;;;;15.00;99.90;;;;;;5034398;28;20076;-60
2022/09/01 03:30:04;;;;;;;;;;;15.00;99.90;;;;;;5053222;28;19921;-60
2022/09/01 03:32:29;;;;;;;;;;;15.00;99.90;;;;;;5055390;28;19959;-60
2022/09/01 03:34:56;;;;;;;;;;;15.00;99.90;;;;;;5019816;28;19971;-60
2022/09/01 03:37:22;;;;;;;;;;;15.00;99.90;;;;;;5034305;28;19925;-60
2022/09/01 03:39:47;;;;;;;;;;;14.90;99.90;;;;;;5035067;28;19928;-60
2022/09/01 03:42:21;;;;;;;;;;;14.90;99.90;;;;;;5035250;28;20473;-60
2022/09/01 03:44:48;;;;;;;;;;;14.90;99.90;;;;;;5055431;28;19924;-61
2022/09/01 03:47:14;;;;;;;;;;;14.80;99.90;;;;;;5052054;28;19921;-60
2022/09/01 03:49:42;;;;;;;;;;;14.80;99.90;;;;;;5035076;28;19925;-60
2022/09/01 03:52:10;;;;;;;;;;;14.70;99.90;;;;;;5018974;28;19993;-60
2022/09/01 03:54:36;;;;;;;;;;;14.70;99.90;;;;;;5034895;28;19979;-60
2022/09/01 03:57:04;;;;;;;;;;;14.70;99.90;;;;;;5031170;28;19921;-61
2022/09/01 03:59:30;;;;;;;;;;;14.60;99.90;;;;;;5052640;28;19974;-60
2022/09/01 04:01:56;;;;;;;;;;;14.60;99.90;;;;;;5067706;28;19924;-60
2022/09/01 04:04:22;;;;;;;;;;;14.60;99.90;;;;;;5035076;28;19939;-60
2022/09/01 04:06:48;;;;;;;;;;;14.50;99.90;;;;;;5034930;28;19991;-60
2022/09/01 04:09:14;;;;;;;;;;;14.50;99.90;;;;;;5034609;28;20363;-60
2022/09/01 04:11:45;;;;;;;;;;;14.50;99.90;;;;;;5035074;28;19955;-60
2022/09/01 04:14:11;;;;;;;1999.90;999.90;;;14.50;99.90;;;;;;5037396;28;20078;-61
2022/09/01 04:19:25;;;;;;;1999.90;999.90;;;14.50;99.90;;;;;;5071325;28;20044;-60
2022/09/01 04:21:55;;;;;;;1999.90;999.90;;;14.60;99.90;;;;;;5054109;28;20047;-60
2022/09/01 04:24:23;;;;;;;;;;;14.60;99.90;;;;;;5050479;28;20070;-60
2022/09/01 04:26:51;;;;;;;;;;;14.60;99.90;;;;;;5053987;28;19963;-60
2022/09/01 04:29:18;;;;;;;;;;;14.60;99.90;;;;;;5054624;28;20393;-60
2022/09/01 04:31:50;;;;;;;;;;;14.60;99.90;;;;;;5050414;28;19920;-60
2022/09/01 04:34:16;;;;;;;;;;;14.60;99.90;;;;;;5069561;28;20424;-61
2022/09/01 04:36:43;;;;;;;;;;;14.50;99.90;;;;;;5053173;28;19964;-61
2022/09/01 04:39:11;;;;;;;;;;;14.50;99.90;;;;;;5068026;28;19975;-61
2022/09/01 04:41:39;;;;;;;;;;;14.60;99.90;;;;;;5057633;28;19924;-61
2022/09/01 04:44:05;;;;;;;;;;;14.50;99.90;;;;;;5054707;28;19927;-61
2022/09/01 04:46:37;;;;;;;;;;;14.60;99.90;;;;;;5058160;28;20381;-61
2022/09/01 04:49:08;;;;;;;;;;;14.60;99.90;;;;;;5055039;28;19920;-61
2022/09/01 04:51:42;;;;;;;;;;;14.60;99.90;;;;;;5058024;28;19924;-61
2022/09/01 04:54:12;;;;;;;;;;;14.60;99.90;;;;;;5058397;28;20043;-61
2022/09/01 04:56:40;;;;;;;;;;;14.60;99.90;;;;;;5086698;28;19920;-61
2022/09/01 04:59:10;;;;;;;;;;;14.50;99.90;;;;;;5082108;28;19924;-61
2022/09/01 05:01:44;;;;;;;;;;;14.60;99.90;;;;;;5058315;28;19936;-61
2022/09/01 05:04:13;;;;;;;;;;;14.60;99.90;;;;;;5057988;28;19920;-61
2022/09/01 05:06:41;;;;;;;;;;;14.60;99.90;;;;;;5056842;28;19920;-60
2022/09/01 05:09:08;;;;;;;;;;;14.70;99.90;;;;;;5091863;28;20289;-61
2022/09/01 05:11:44;;;;;;;;;;;14.70;99.90;;;;;;5090531;28;19924;-61
2022/09/01 05:14:19;;;;;;;;;;;14.70;99.90;;;;;;5057600;28;20007;-61
2022/09/01 05:16:45;;;;;;;;;;;14.80;99.90;;;;;;5057384;28;19920;-61
2022/09/01 05:19:13;;;;;;;;;;;14.80;99.90;;;;;;5056662;28;19936;-61
2022/09/01 05:21:44;;;;;;;;;;;14.80;99.90;;;;;;5091167;28;20358;-61
2022/09/01 05:24:14;;;;;;;;;;;14.80;99.90;;;;;;5090950;28;19942;-61
2022/09/01 05:26:41;;;;;;;;;;;14.90;99.90;;;;;;5090271;28;20003;-60
2022/09/01 05:29:12;;;;;;;;;;;14.90;99.90;;;;;;5057898;28;19924;-61
2022/09/01 05:31:40;;;;;;;;;;;14.90;99.90;;;;;;5057416;28;19939;-61
2022/09/01 05:34:08;;;;;;;;;;;14.90;99.90;;;;;;5090163;28;20259;-61
2022/09/01 05:36:35;;;;;;;;;;;14.90;99.90;;;;;;5075583;28;20359;-60
2022/09/01 05:39:03;;;;;;;;;;;15.00;99.90;;;;;;5073740;28;19928;-60
2022/09/01 05:41:29;;;;;;;;;;;15.10;99.90;;;;;;5057007;28;19921;-60
2022/09/01 05:43:55;;;;;;;;;;;15.10;99.90;;;;;;5090983;28;19924;-61
2022/09/01 05:46:22;;;;;;;;;;;15.20;99.90;;;;;;5057004;28;19924;-61
2022/09/01 05:48:50;;;;;;;;;;;15.30;99.90;;;;;;5056603;28;20011;-61
2022/09/01 05:51:18;;;;;;;;;;;15.40;99.90;;;;;;5055637;28;20370;-61
2022/09/01 05:53:45;;;;;;;;;;;15.50;99.90;;;;;;5090629;28;19973;-61
2022/09/01 05:56:12;;;;;;;;;;;15.70;99.90;;;;;;5090654;28;19920;-60
2022/09/01 05:58:39;;;;;;;;;;;15.80;99.90;;;;;;5057466;28;19924;-61
2022/09/01 06:01:05;;;;;;;;;;;15.90;99.90;;;;;;5089703;28;19967;-61
2022/09/01 06:03:32;;;;;;;;;;;16.00;99.90;;;;;;5057025;28;19920;-61
2022/09/01 06:06:02;;;;;;;;;;;16.10;99.90;;;;;;5057241;28;20011;-61
2022/09/01 06:08:28;;;;;;;;;;;16.10;99.90;;;;;;5039459;28;19974;-61
2022/09/01 06:10:54;;;;;;;;;;;16.10;99.90;;;;;;5056542;28;19920;-61
2022/09/01 06:13:21;;;;;;;;;;;16.20;99.90;;;;;;5040315;28;19922;-61
2022/09/01 06:15:47;;;;;;;;;;;16.30;99.90;;;;;;5057077;28;20322;-61
2022/09/01 06:18:14;;;;;;;;;;;16.40;99.90;;;;;;5034316;28;20379;-61
2022/09/01 06:20:50;;;;;;;;;;;16.50;99.90;;;;;;5030379;28;19920;-61
2022/09/01 06:23:17;;;;;;;;;;;16.70;99.90;;;;;;5035053;28;20374;-61
2022/09/01 06:25:45;;;;;;;;;;;16.90;99.90;;;;;;5029869;28;19962;-61
2022/09/01 06:28:13;;;;;;;;;;;17.10;99.90;;;;;;5036585;28;19920;-61
2022/09/01 06:30:39;;;;;;;;;;;17.20;99.90;;;;;;5038521;28;19921;-61
2022/09/01 06:33:09;;;;;;;;;;;17.20;99.90;;;;;;5066390;28;19967;-61
2022/09/01 06:35:37;;;;;;;;;;;17.10;99.90;;;;;;5069255;28;19925;-61
2022/09/01 06:38:05;;;;;;;;;;;17.10;99.90;;;;;;5035668;28;19917;-61
2022/09/01 06:40:39;;;;;;;;;;;17.10;99.90;;;;;;5047497;28;19929;-61
2022/09/01 06:43:07;;;;;;;;;;;17.10;99.90;;;;;;5034293;28;20310;-61
2022/09/01 06:45:39;;;;;;;;;;;17.10;99.90;;;;;;5036101;28;20294;-61
2022/09/01 06:48:05;;;;;;;;;;;17.10;99.90;;;;;;5041641;28;20282;-61
2022/09/01 06:50:32;;;;;;;;;;;17.10;99.90;;;;;;5034298;28;19936;-61
2022/09/01 06:53:09;;;;;;;;;;;17.00;99.90;;;;;;5034494;28;19920;-61
2022/09/01 06:55:36;;;;;;;;;;;17.10;99.90;;;;;;5021291;28;19921;-61
2022/09/01 06:58:04;;;;;;;;;;;17.10;99.90;;;;;;5047865;28;20345;-61
2022/09/01 07:00:30;;;;;;;;;;;17.10;99.90;;;;;;5035010;28;19920;-61
2022/09/01 07:02:56;;;;;;;;;;;17.20;99.90;;;;;;5035436;28;19920;-61
2022/09/01 07:05:40;;;;;;;;;;;17.30;99.90;;;;;;5035496;28;19970;-61
2022/09/01 07:08:08;;;;;;;;;;;17.30;99.90;;;;;;5035760;28;19924;-61
2022/09/01 07:10:48;;;;;;;;;;;17.40;99.90;;;;;;5037804;28;19920;-61
2022/09/01 07:13:21;;;;;;;;;;;17.50;99.90;;;;;;5026428;28;20387;-61
2022/09/01 07:15:48;;;;;;;;;;;17.60;99.90;;;;;;5051705;28;19978;-61
2022/09/01 07:18:16;;;;;;;;;;;17.70;99.90;;;;;;5088547;28;19920;-61
2022/09/01 07:20:43;;;;;;;;;;;17.80;99.90;;;;;;5058306;28;20412;-61
2022/09/01 07:23:10;;;;;;;;;;;17.80;99.90;;;;;;5075385;28;19970;-61
2022/09/01 07:25:40;;;;;;;;;;;17.90;99.90;;;;;;5054765;28;19931;-61
2022/09/01 07:28:12;;;;;;;;;;;17.90;99.90;;;;;;5072643;28;19920;-61
2022/09/01 07:30:40;;;;;;;;;;;18.00;99.90;;;;;;5058441;28;20030;-61
2022/09/01 07:33:10;;;;;;;;;;;18.10;99.90;;;;;;5074901;28;19916;-61
2022/09/01 07:35:38;;;;;;;;;;;18.20;99.90;;;;;;5075568;28;19931;-61
2022/09/01 07:38:08;;;;;;;;;;;18.40;99.90;;;;;;5092844;28;20373;-61
2022/09/01 07:40:37;;;;;;;;;;;18.60;99.90;;;;;;5074975;28;19927;-61
2022/09/01 07:43:21;;;;;;;;;;;18.60;99.90;;;;;;5093442;28;20423;-61
2022/09/01 07:46:04;;;;;;;;;;;18.60;99.90;;;;;;5086593;28;19922;-61
2022/09/01 07:48:29;;;;;;;;;;;18.40;99.90;;;;;;5055404;28;20397;-61
2022/09/01 07:50:56;;;;;;;;;;;18.40;99.90;;;;;;5055337;28;19971;-61
2022/09/01 07:53:25;;;;;;;;;;;18.50;99.90;;;;;;5054104;28;19920;-61
2022/09/01 07:55:52;;;;;;;;;;;18.70;99.90;;;;;;5047438;28;19964;-61
2022/09/01 07:58:20;;;;;;;;;;;18.90;99.90;;;;;;5075434;28;19964;-61
2022/09/01 08:00:48;;;;;;;;;;;19.10;99.90;;;;;;5074114;28;19920;-61
2022/09/01 08:03:17;;;;;;;;;;;19.50;99.90;;;;;;5075338;28;20310;-61
2022/09/01 08:05:44;;;;;;;;;;;19.80;99.90;;;;;;5074734;28;19916;-61
2022/09/01 08:08:10;;;;;;;;;;;20.20;99.90;;;;;;5071107;28;19928;-61
2022/09/01 08:10:39;;;;;;;;;;;20.50;99.90;;;;;;5037888;28;19920;-60
2022/09/01 08:13:06;;;;;;;;;;;20.60;99.90;;;;;;5054590;28;19920;-61
2022/09/01 08:15:32;;;;;;;;;;;20.60;99.90;;;;;;5072660;28;19974;-61
2022/09/01 08:17:57;;;;;;;;;;;20.70;99.90;;;;;;5092902;28;19924;-61
2022/09/01 08:20:26;;;;;;;;;;;20.70;99.90;;;;;;5058755;28;19931;-61
2022/09/01 08:23:07;;;;;;;;;;;20.70;99.90;;;;;;5065212;28;19942;-61
2022/09/01 08:25:35;;;;;;;;;;;20.60;99.90;;;;;;5077230;28;19927;-61
2022/09/01 08:28:02;;;;;;;;;;;20.60;99.90;;;;;;5076929;28;20011;-61
2022/09/01 08:30:28;;;;;;;;;;;20.70;99.90;;;;;;5092078;28;19924;-61
2022/09/01 08:32:54;;;;;;;;;;;20.80;99.90;;;;;;5076085;28;19954;-61
2022/09/01 08:35:21;;;;;;;;;;;20.90;99.90;;;;;;5075733;28;19927;-61
2022/09/01 08:37:47;;;;;;;;;;;21.10;99.90;;;;;;5075699;28;20286;-61
2022/09/01 08:40:15;;;;;;;;;;;21.30;99.90;;;;;;5058512;28;19921;-61
2022/09/01 08:42:51;;;;;;;;;;;21.50;99.90;;;;;;5091279;28;19921;-61
2022/09/01 08:45:20;;;;;;;;;;;21.60;99.90;;;;;;5067454;28;19935;-61
2022/09/01 08:47:46;;;;;;;;;;;21.70;99.90;;;;;;5081857;28;19931;-61
2022/09/01 08:50:13;;;;;;;;;;;21.80;99.90;;;;;;5071790;28;20312;-61
2022/09/01 08:53:00;;;;;;;;;;;21.80;99.90;;;;;;5088977;28;19970;-61
2022/09/01 08:55:33;;;;;;;;;;;21.90;99.90;;;;;;5076439;28;19927;-61
2022/09/01 08:57:59;;;;;;;;;;;22.00;99.90;;;;;;5086882;28;20285;-61
2022/09/01 09:00:26;;;;;;;;;;;22.10;99.90;;;;;;5075238;28;19921;-61
2022/09/01 09:02:56;;;;;;;;;;;22.10;99.90;;;;;;5057294;28;19917;-61
2022/09/01 09:05:26;;;;;;;;;;;22.10;99.90;;;;;;5073827;28;20382;-61
2022/09/01 09:08:01;;;;;;;;;;;22.20;99.90;;;;;;5074146;28;20294;-61
2022/09/01 09:10:30;;;;;;;;;;;22.30;99.90;;;;;;5073863;28;19931;-61
2022/09/01 09:13:02;;;;;;;;;;;22.50;99.90;;;;;;5075175;28;20552;-61
2022/09/01 09:15:36;;;;;;;;;;;22.50;99.50;;;;;;5060113;28;20293;-61
2022/09/01 09:18:12;;;;;;;;;;;22.50;99.00;;;;;;5077148;28;19924;-61
2022/09/01 09:20:38;;;;;;;1999.90;999.90;;;22.50;98.90;;;;;;5111474;28;20697;-61
2022/09/01 09:23:19;;;;;;;1999.90;999.90;;;22.60;98.80;;;;;;5094073;28;20044;-61
2022/09/01 09:25:45;;;;;;;1999.90;999.90;;;22.70;98.60;;;;;;5071279;28;20072;-61
2022/09/01 09:28:12;;;;;;;1999.90;999.90;;;22.80;98.50;;;;;;5074846;28;20083;-61
2022/09/01 09:30:38;;;;;;;1999.90;999.90;;;22.90;98.30;;;;;;5056861;28;20494;-61
2022/09/01 09:33:09;;;;;;;1999.90;999.90;;;22.80;97.90;;;;;;5082934;28;20091;-61
2022/09/01 09:35:43;;;;;;;1999.90;999.90;;;22.90;97.90;;;;;;5087495;28;20044;-61
2022/09/01 09:38:17;;;;;;;1999.90;999.90;;;23.10;97.60;;;;;;5094968;28;20409;-61
2022/09/01 09:40:59;;;;;;;1999.90;999.90;;;23.20;97.60;;;;;;5094438;28;20541;-61
2022/09/01 09:43:26;;;;;;;1999.90;999.90;;;23.40;97.60;;;;;;5054568;28;20127;-61
2022/09/01 09:46:27;;;;;;;1999.90;999.90;;;23.50;97.30;;;;;;5040307;28;20032;-61
2022/09/01 09:49:11;;;;;;;1999.90;999.90;;;23.50;96.50;;;;;;5072120;28;20141;-61
2022/09/01 09:51:41;;;;;;;1999.90;999.90;;;23.70;96.90;;;;;;5090029;28;20059;-61
2022/09/01 09:54:20;;;;;;;1999.90;999.90;;;23.90;96.60;;;;;;5093894;28;20051;-61
2022/09/01 09:56:48;;;;;;;1999.90;999.90;;;24.00;96.60;;;;;;5087848;28;20399;-61
2022/09/01 09:59:27;;;;;;;1999.90;999.90;;;24.10;95.80;;;;;;5056521;28;20036;-61
2022/09/01 10:01:58;;;;;;;1999.90;999.90;;;24.00;95.50;;;;;;5077065;28;20041;-61
2022/09/01 10:04:35;;;;;;;1999.90;999.90;;;23.90;95.40;;;;;;5072638;28;20045;-61
2022/09/01 10:07:20;;;;;;;1999.90;999.90;;;24.00;95.60;;;;;;5087585;28;20052;-61
2022/09/01 10:09:47;;;;;;;;;;;24.10;94.80;;;;;;5094618;28;19920;-61
2022/09/01 10:12:13;;;;;;;;;;;24.20;94.20;;;;;;5076748;28;19959;-61
2022/09/01 10:14:46;;;;;;;1999.90;999.90;;;24.50;94.40;;;;;;5067004;28;19964;-61
2022/09/01 10:17:15;;;;;;;1999.90;999.90;;;24.90;94.00;;;;;;5081901;28;20494;-61
2022/09/01 10:19:54;;;;;;;1999.90;999.90;;;26.20;92.00;;;;;;5079226;28;19927;-61
2022/09/01 10:22:21;;;;;;;;;;;26.30;91.40;;;;;;5073369;28;20074;-61
2022/09/01 10:24:48;;;;;;;1999.90;999.90;;;;;;;;;;5056155;28;19931;-61
2022/09/01 10:27:24;;;;;;;1999.90;999.90;;;28.10;84.60;;;;;;5073785;28;20452;-62
2022/09/01 10:30:06;;;;;;;1999.90;999.90;;;28.30;82.60;;;;;;5073128;28;20398;-61
2022/09/01 10:32:42;;;;;;;1999.90;999.90;;;;;;;;;;5073935;28;20109;-62
2022/09/01 10:35:18;;;;;;;1999.90;999.90;;;29.60;74.90;;;;;;5080728;28;20048;-61
2022/09/01 10:37:45;;;;;;;1999.90;999.90;;;30.00;73.90;;;;;;5093306;28;20493;-62
2022/09/01 10:40:15;;;;;;;1999.90;999.90;;;30.20;70.20;;;;;;5094289;28;20044;-61
2022/09/01 10:42:44;;;;;;;1999.90;999.90;;;30.50;70.20;;;;;;5088877;28;20055;-61
2022/09/01 10:45:29;;;;;;;1999.90;999.90;;;31.00;67.60;;;;;;5090539;28;20047;-61
2022/09/01 10:47:55;;;;;;;1999.90;999.90;;;31.50;66.10;;;;;;5070123;28;20056;-61
2022/09/01 10:50:26;;;;;;;1999.90;999.90;;;31.80;63.30;;;;;;5072992;28;20387;-62
2022/09/01 10:52:55;;;;;;;1999.90;999.90;;;32.20;61.20;;;;;;5079685;28;20130;-61
2022/09/01 10:55:23;;;;;;;1999.90;999.90;;;;;;;;;;5075889;28;20104;-62
2022/09/01 10:57:54;;;;;;;1999.90;999.90;;;;;;;;;;5092628;28;20474;-62
2022/09/01 11:00:20;;;;;;;1999.90;999.90;;;33.40;57.40;;;;;;5093924;28;20470;-62
2022/09/01 11:03:17;;;;;;;1999.90;999.90;;;33.30;55.40;;;;;;5085053;28;20043;-61
2022/09/01 11:05:52;;;;;;;1999.90;999.90;;;32.50;55.10;;;;;;5067009;28;20037;-61
2022/09/01 11:08:26;;;;;;;1999.90;999.90;;;32.40;54.30;;;;;;5072416;28;20075;-61
2022/09/01 11:10:55;;;;;;;1999.90;999.90;;;32.30;55.00;;;;;;5072295;28;20063;-62
2022/09/01 11:13:34;;;;;;;1999.90;999.90;;;32.50;52.60;;;;;;5071520;28;20079;-61
2022/09/01 11:16:30;;;;;;;1999.90;999.90;;;32.60;54.20;;;;;;5052933;28;20088;-61
2022/09/01 11:19:16;;;;;;;1999.90;999.90;;;33.10;53.80;;;;;;5065350;28;20051;-61
2022/09/01 11:21:42;;;;;;;1999.90;999.90;;;33.60;51.40;;;;;;5084574;28;20055;-61
2022/09/01 11:24:40;;;;;;;1999.90;999.90;;;33.40;51.40;;;;;;5054209;28;20079;-62
2022/09/01 11:27:09;;;;;;;1999.90;999.90;;;33.40;52.80;;;;;;5072040;28;20483;-62
2022/09/01 11:29:55;;;;;;;1999.90;999.90;;;33.90;50.80;;;;;;5093161;28;20486;-61
2022/09/01 11:32:31;;;;;;;1999.90;999.90;;;34.30;48.70;;;;;;5070830;28;20076;-62
2022/09/01 11:35:00;;;;;;;1999.90;999.90;;;34.50;49.20;;;;;;5069358;28;20049;-61
2022/09/01 11:37:26;;;;;;;1999.90;999.90;;;34.00;48.70;;;;;;5085712;28;20498;-62
2022/09/01 11:39:57;;;;;;;1999.90;999.90;;;33.00;49.30;;;;;;5074041;28;20530;-61
2022/09/01 11:42:26;;;;;;;1999.90;999.90;;;32.90;50.20;;;;;;5092542;28;20521;-62
2022/09/01 11:45:27;;;;;;;1999.90;999.90;;;33.40;49.10;;;;;;5092573;28;20110;-62
2022/09/01 11:47:57;;;;;;;1999.90;999.90;;;33.10;49.70;;;;;;5076881;28;20047;-62
2022/09/01 11:50:26;;;;;;;1999.90;999.90;;;33.50;49.50;;;;;;5072326;28;20052;-61
2022/09/01 11:52:54;;;;;;;1999.90;999.90;;;34.10;48.70;;;;;;5071665;28;20048;-62
2022/09/01 11:55:33;;;;;;;1999.90;999.90;;;34.80;47.30;;;;;;5082569;28;20044;-62
2022/09/01 11:57:59;;;;;;;1999.90;999.90;;;;;;;;;;5074812;28;20040;-62
2022/09/01 12:00:29;;;;;;;1999.90;999.90;;;35.90;45.70;;;;;;5074303;28;20048;-62
2022/09/01 12:02:55;;;;;;;1999.90;999.90;;;36.20;45.40;;;;;;5092253;28;20040;-62
2022/09/01 12:05:26;;;;;;;1999.90;999.90;;;36.50;44.90;;;;;;5092369;28;20040;-61
2022/09/01 12:07:53;;;;;;;1999.90;999.90;;;36.20;44.20;;;;;;5092119;28;20048;-62
2022/09/01 12:10:28;;;;;;;1999.90;999.90;;;34.90;44.20;;;;;;5074644;28;20130;-62
2022/09/01 12:13:05;;;;;;;1999.90;999.90;;;34.40;44.30;;;;;;5073819;28;20051;-62
2022/09/01 12:15:33;;;;;;;1999.90;999.90;;;34.70;43.50;;;;;;5091879;28;20109;-62
2022/09/01 12:18:12;;;;;;;1999.90;999.90;;;34.90;44.50;;;;;;5092366;28;20127;-62
2022/09/01 12:20:38;;;;;;;1999.90;999.90;;;35.30;45.80;;;;;;5068586;28;20052;-62
2022/09/01 12:23:16;;;;;;;1999.90;999.90;;;35.70;44.50;;;;;;5071571;28;20051;-62
2022/09/01 12:25:44;;;;;;;1999.90;999.90;;;35.50;44.40;;;;;;5070836;28;20037;-61
2022/09/01 12:28:10;;;;;;;1999.90;999.90;;;34.20;44.90;;;;;;5069947;28;20080;-62
2022/09/01 12:30:39;;;;;;;1999.90;999.90;;;33.70;45.80;;;;;;5075932;28;20087;-61
2022/09/01 12:33:09;;;;;;;1999.90;999.90;;;32.30;46.40;;;;;;5072403;28;20467;-62
2022/09/01 12:35:35;;;;;;;1999.90;999.90;;;30.90;48.50;;;;;;5045149;28;20052;-62
2022/09/01 12:38:18;;;;;;;1999.90;999.90;;;30.00;50.00;;;;;;5069743;28;20051;-62
2022/09/01 12:40:47;;;;;;;1999.90;999.90;;;28.90;49.70;;;;;;5065551;28;20135;-61
2022/09/01 12:43:33;;;;;;;1999.90;999.90;;;;;;;;;;5071726;28;20044;-62
2022/09/01 12:46:00;;;;;;;1999.90;999.90;;;28.90;51.10;;;;;;5072064;28;20041;-61
2022/09/01 12:48:29;;;;;;;1999.90;999.90;;;30.10;50.30;;;;;;5062657;28;20413;-62
2022/09/01 12:50:58;;;;;;;1999.90;999.90;;;30.80;49.70;;;;;;5070885;28;20123;-62
2022/09/01 12:53:27;;;;;;;1999.90;999.90;;;32.00;48.00;;;;;;5071700;28;19928;-61
2022/09/01 12:55:56;;;;;;;;;;;33.10;46.60;;;;;;5071554;28;20292;-62
2022/09/01 12:58:29;;;;;;;;;;;33.30;47.10;;;;;;5052948;28;20287;-62
2022/09/01 13:00:59;;;;;;;;;;;33.50;48.40;;;;;;5065888;28;20338;-62
2022/09/01 13:03:28;;;;;;;;;;;32.50;47.50;;;;;;5074865;28;19963;-63
2022/09/01 13:05:54;;;;;;;;;;;31.00;50.10;;;;;;5089244;28;19916;-63
2022/09/01 13:08:24;;;;;;;;;;;30.20;51.40;;;;;;5096451;28;20014;-62
2022/09/01 13:10:52;;;;;;;;;;;30.70;49.70;;;;;;5095741;28;20007;-62
2022/09/01 13:13:19;;;;;;;;;;;32.00;48.20;;;;;;5095499;28;19920;-63
2022/09/01 13:15:46;;;;;;;;;;;33.10;47.80;;;;;;5091001;28;19928;-62
2022/09/01 13:18:13;;;;;;;;;;;33.70;47.70;;;;;;5074710;28;19920;-63
2022/09/01 13:20:38;;;;;;;;;;;33.70;46.70;;;;;;5075602;28;19928;-63
2022/09/01 13:23:05;;;;;;;;;;;34.40;45.40;;;;;;5069090;28;19926;-63
2022/09/01 13:25:31;;;;;;;;;;;34.40;43.60;;;;;;5073884;28;20011;-63
2022/09/01 13:28:00;;;;;;;;;;;33.30;44.90;;;;;;5074670;28;20327;-63
2022/09/01 13:30:27;;;;;;;;;;;32.50;46.70;;;;;;5075111;28;20011;-62
2022/09/01 13:32:52;;;;;;;;;;;32.40;46.50;;;;;;5055569;28;19921;-62
2022/09/01 13:35:19;;;;;;;;;;;33.00;45.10;;;;;;5075573;28;19920;-63
2022/09/01 13:37:45;;;;;;;;;;;33.60;44.80;;;;;;5057498;28;19921;-63
2022/09/01 13:40:15;;;;;;;;;;;33.20;45.40;;;;;;5074109;28;20453;-62
2022/09/01 13:42:41;;;;;;;;;;;32.60;45.40;;;;;;5075471;28;19920;-62
2022/09/01 13:45:08;;;;;;;;;;;32.00;45.50;;;;;;5074762;28;19924;-63
2022/09/01 13:47:33;;;;;;;;;;;31.20;46.20;;;;;;5074498;28;19920;-62